createdAt,value
2022-10-01T00:02:07.151Z,8.30
2022-10-01T00:04:36.568Z,8.30
2022-10-01T00:07:09.354Z,8.30
2022-10-01T00:09:36.680Z,8.30
2022-10-01T00:12:03.745Z,8.40
2022-10-01T00:14:30.742Z,8.40
2022-10-01T00:16:58.052Z,8.40
2022-10-01T00:19:25.377Z,8.50
2022-10-01T00:21:52.336Z,8.40
2022-10-01T00:24:19.467Z,8.40
2022-10-01T00:26:48.167Z,8.50
2022-10-01T00:29:15.525Z,8.50
2022-10-01T00:31:43.072Z,8.50
2022-10-01T00:34:12.767Z,8.50
2022-10-01T00:36:39.865Z,8.50
2022-10-01T00:39:07.112Z,8.50
2022-10-01T00:41:35.165Z,8.50
2022-10-01T00:44:24.984Z,8.50
2022-10-01T00:46:54.010Z,8.50
2022-10-01T00:49:24.927Z,8.50
2022-10-01T00:51:58.078Z,8.50
2022-10-01T00:54:46.739Z,8.50
2022-10-01T00:57:18.848Z,8.50
2022-10-01T00:59:47.287Z,8.50
2022-10-01T01:02:14.404Z,8.50
2022-10-01T01:04:42.101Z,8.50
2022-10-01T01:07:09.702Z,8.40
2022-10-01T01:09:47.113Z,8.50
2022-10-01T01:12:35.521Z,8.50
2022-10-01T01:15:17.428Z,8.50
2022-10-01T01:18:35.538Z,8.50
2022-10-01T01:21:25.163Z,8.50
2022-10-01T01:24:20.610Z,8.40
2022-10-01T01:26:59.587Z,8.40
2022-10-01T01:29:34.937Z,8.40
2022-10-01T01:32:14.009Z,8.30
2022-10-01T01:34:46.743Z,8.30
2022-10-01T01:37:17.529Z,8.20
2022-10-01T01:39:50.297Z,8.20
2022-10-01T01:42:44.894Z,8.10
2022-10-01T01:45:19.127Z,8.10
2022-10-01T01:47:49.013Z,8.00
2022-10-01T01:50:17.188Z,7.90
2022-10-01T01:52:44.174Z,7.80
2022-10-01T01:55:11.390Z,7.80
2022-10-01T01:57:42.013Z,7.80
2022-10-01T02:00:11.990Z,7.70
2022-10-01T02:02:43.049Z,7.60
2022-10-01T02:05:16.000Z,7.60
2022-10-01T02:07:54.982Z,7.60
2022-10-01T02:10:44.734Z,7.50
2022-10-01T02:13:24.103Z,7.40
2022-10-01T02:16:26.476Z,7.40
2022-10-01T02:19:18.735Z,7.40
2022-10-01T02:21:58.652Z,7.40
2022-10-01T02:24:57.180Z,7.30
2022-10-01T02:27:31.703Z,7.30
2022-10-01T02:30:03.805Z,7.30
2022-10-01T02:32:32.220Z,7.20
2022-10-01T02:35:01.582Z,7.20
2022-10-01T02:37:28.889Z,7.20
2022-10-01T02:39:57.496Z,7.20
2022-10-01T02:42:28.240Z,7.20
2022-10-01T02:44:58.434Z,7.10
2022-10-01T02:47:34.131Z,7.10
2022-10-01T02:50:02.744Z,7.10
2022-10-01T02:52:41.798Z,7.10
2022-10-01T02:55:11.600Z,7.00
2022-10-01T02:57:39.414Z,7.00
2022-10-01T03:00:12.375Z,7.00
2022-10-01T03:02:39.696Z,7.00
2022-10-01T03:05:07.651Z,7.00
2022-10-01T03:07:36.327Z,7.00
2022-10-01T03:10:07.498Z,7.00
2022-10-01T03:12:38.031Z,6.90
2022-10-01T03:15:05.556Z,6.90
2022-10-01T03:17:32.712Z,6.90
2022-10-01T03:19:59.735Z,6.80
2022-10-01T03:22:26.926Z,6.80
2022-10-01T03:24:54.334Z,6.80
2022-10-01T03:27:22.301Z,6.80
2022-10-01T03:29:50.047Z,6.70
2022-10-01T03:32:18.058Z,6.70
2022-10-01T03:34:45.294Z,6.70
2022-10-01T03:37:12.533Z,6.70
2022-10-01T03:39:39.948Z,6.70
2022-10-01T03:42:07.122Z,6.70
2022-10-01T03:44:34.637Z,6.70
2022-10-01T03:47:01.685Z,6.60
2022-10-01T03:49:28.933Z,6.60
2022-10-01T03:51:57.094Z,6.60
2022-10-01T03:54:25.254Z,6.60
2022-10-01T03:56:52.571Z,6.60
2022-10-01T03:59:19.994Z,6.60
2022-10-01T04:01:47.215Z,6.60
2022-10-01T04:04:15.024Z,6.60
2022-10-01T04:06:42.240Z,6.60
2022-10-01T04:09:09.997Z,6.60
2022-10-01T04:11:39.001Z,6.60
2022-10-01T04:14:06.568Z,6.60
2022-10-01T04:16:36.268Z,6.60
2022-10-01T04:19:04.540Z,6.60
2022-10-01T04:21:32.293Z,6.60
2022-10-01T04:24:00.125Z,6.60
2022-10-01T04:26:27.266Z,6.60
2022-10-01T04:28:54.537Z,6.50
2022-10-01T04:31:24.894Z,6.50
2022-10-01T04:33:57.090Z,6.50
2022-10-01T04:36:25.703Z,6.50
2022-10-01T04:38:58.048Z,6.50
2022-10-01T04:41:30.521Z,6.50
2022-10-01T04:44:01.362Z,6.50
2022-10-01T04:46:30.431Z,6.50
2022-10-01T04:48:58.131Z,6.50
2022-10-01T04:51:25.220Z,6.50
2022-10-01T04:53:52.261Z,6.50
2022-10-01T04:56:19.503Z,6.50
2022-10-01T04:58:46.565Z,6.50
2022-10-01T05:01:13.603Z,6.50
2022-10-01T05:03:41.326Z,6.60
2022-10-01T05:06:08.590Z,6.70
2022-10-01T05:08:36.803Z,6.70
2022-10-01T05:11:04.027Z,6.80
2022-10-01T05:13:31.938Z,6.90
2022-10-01T05:15:59.172Z,6.90
2022-10-01T05:18:26.639Z,7.00
2022-10-01T05:20:53.892Z,7.10
2022-10-01T05:23:20.949Z,7.20
2022-10-01T05:25:48.141Z,7.30
2022-10-01T05:28:21.423Z,7.40
2022-10-01T05:30:49.659Z,7.50
2022-10-01T05:33:16.798Z,7.50
2022-10-01T05:35:44.498Z,7.60
2022-10-01T05:38:11.734Z,7.70
2022-10-01T05:40:38.751Z,8.20
2022-10-01T05:43:05.732Z,9.70
2022-10-01T05:45:33.393Z,11.40
2022-10-01T05:48:02.690Z,12.60
2022-10-01T05:50:31.839Z,13.20
2022-10-01T05:53:00.664Z,13.70
2022-10-01T05:55:33.412Z,14.40
2022-10-01T05:58:06.331Z,15.10
2022-10-01T06:00:35.772Z,15.90
2022-10-01T06:03:06.446Z,16.50
2022-10-01T06:05:35.306Z,17.10
2022-10-01T06:08:05.587Z,17.50
2022-10-01T06:10:33.157Z,17.90
2022-10-01T06:13:01.924Z,18.40
2022-10-01T06:15:34.877Z,18.50
2022-10-01T06:18:02.867Z,18.70
2022-10-01T06:20:30.386Z,18.70
2022-10-01T06:22:58.606Z,19.00
2022-10-01T06:25:30.709Z,19.30
2022-10-01T06:28:01.717Z,18.90
2022-10-01T06:30:31.814Z,18.10
2022-10-01T06:33:08.462Z,17.20
2022-10-01T06:35:40.226Z,16.10
2022-10-01T06:38:08.107Z,15.40
2022-10-01T06:40:35.431Z,14.80
2022-10-01T06:43:03.184Z,14.30
2022-10-01T06:45:31.393Z,14.10
2022-10-01T06:48:03.132Z,13.90
2022-10-01T06:50:31.955Z,13.90
2022-10-01T06:53:00.099Z,13.70
2022-10-01T06:55:29.892Z,13.60
2022-10-01T06:57:59.717Z,13.50
2022-10-01T07:00:29.179Z,13.50
2022-10-01T07:02:56.820Z,13.40
2022-10-01T07:05:25.069Z,13.40
2022-10-01T07:07:53.684Z,13.50
2022-10-01T07:10:22.287Z,13.40
2022-10-01T07:12:50.373Z,13.40
2022-10-01T07:15:22.798Z,13.40
2022-10-01T07:17:51.278Z,13.40
2022-10-01T07:20:20.536Z,13.40
2022-10-01T07:22:49.018Z,13.50
2022-10-01T07:25:17.064Z,13.40
2022-10-01T07:27:44.151Z,13.40
2022-10-01T07:30:11.569Z,13.30
2022-10-01T07:32:38.788Z,13.30
2022-10-01T07:35:06.867Z,13.30
2022-10-01T07:37:33.937Z,13.30
2022-10-01T07:40:06.572Z,13.20
2022-10-01T07:42:35.616Z,13.30
2022-10-01T07:45:06.614Z,13.30
2022-10-01T07:47:33.783Z,13.30
2022-10-01T07:50:00.889Z,13.40
2022-10-01T07:52:28.306Z,13.30
2022-10-01T07:54:55.269Z,13.30
2022-10-01T07:57:22.459Z,13.30
2022-10-01T07:59:54.839Z,13.40
2022-10-01T08:02:23.082Z,13.40
2022-10-01T08:05:09.191Z,13.40
2022-10-01T08:07:36.839Z,13.50
2022-10-01T08:10:04.692Z,13.50
2022-10-01T08:12:31.734Z,13.60
2022-10-01T08:15:08.307Z,13.60
2022-10-01T08:17:35.849Z,13.60
2022-10-01T08:20:03.255Z,13.60
2022-10-01T08:22:30.625Z,13.60
2022-10-01T08:24:57.661Z,13.60
2022-10-01T08:27:25.711Z,13.60
2022-10-01T08:29:53.501Z,13.60
2022-10-01T08:32:21.829Z,13.70
2022-10-01T08:34:54.495Z,13.70
2022-10-01T08:37:27.995Z,13.80
2022-10-01T08:39:56.536Z,13.80
2022-10-01T08:42:40.790Z,13.80
2022-10-01T08:45:40.496Z,13.80
2022-10-01T08:48:35.177Z,13.80
2022-10-01T08:51:17.083Z,13.90
2022-10-01T08:53:50.166Z,14.00
2022-10-01T08:56:36.763Z,14.00
2022-10-01T08:59:29.984Z,14.00
2022-10-01T09:01:59.161Z,14.10
2022-10-01T09:04:29.920Z,14.10
2022-10-01T09:07:10.170Z,14.10
2022-10-01T09:09:47.317Z,14.10
2022-10-01T09:12:29.376Z,14.20
2022-10-01T09:15:22.231Z,14.20
2022-10-01T09:17:52.083Z,14.30
2022-10-01T09:20:43.778Z,14.30
2022-10-01T09:23:29.996Z,14.30
2022-10-01T09:25:59.756Z,14.30
2022-10-01T09:28:33.498Z,14.40
2022-10-01T09:31:26.240Z,14.40
2022-10-01T09:34:12.452Z,14.40
2022-10-01T09:36:52.313Z,14.40
2022-10-01T09:39:41.062Z,14.40
2022-10-01T09:42:08.821Z,14.40
2022-10-01T09:44:37.602Z,14.30
2022-10-01T09:47:17.907Z,14.30
2022-10-01T09:49:48.237Z,14.30
2022-10-01T09:52:26.586Z,14.40
2022-10-01T09:55:04.961Z,14.50
2022-10-01T09:57:36.542Z,14.40
2022-10-01T10:00:09.963Z,14.50
2022-10-01T10:02:48.356Z,14.40
2022-10-01T10:05:25.502Z,14.50
2022-10-01T10:07:58.446Z,14.40
2022-10-01T10:10:36.939Z,14.50
2022-10-01T10:13:10.761Z,14.70
2022-10-01T10:15:50.916Z,14.60
2022-10-01T10:18:28.648Z,14.60
2022-10-01T10:20:56.622Z,14.60
2022-10-01T10:23:26.850Z,14.60
2022-10-01T10:25:59.964Z,14.50
2022-10-01T10:28:28.520Z,14.60
2022-10-01T10:30:57.100Z,14.60
2022-10-01T10:33:26.293Z,14.70
2022-10-01T10:36:02.160Z,14.70
2022-10-01T10:38:38.543Z,14.80
2022-10-01T10:41:06.282Z,14.80
2022-10-01T10:43:37.746Z,14.80
2022-10-01T10:46:07.196Z,14.80
2022-10-01T10:48:43.917Z,14.80
2022-10-01T10:51:10.944Z,15.00
2022-10-01T10:53:44.086Z,14.90
2022-10-01T10:56:27.578Z,15.30
2022-10-01T10:58:54.834Z,15.00
2022-10-01T11:01:28.590Z,14.90
2022-10-01T11:03:58.836Z,14.90
2022-10-01T11:06:26.109Z,14.80
2022-10-01T11:09:10.462Z,14.80
2022-10-01T11:12:05.225Z,14.70
2022-10-01T11:14:55.437Z,14.80
2022-10-01T11:17:47.621Z,14.90
2022-10-01T11:20:23.964Z,15.10
2022-10-01T11:23:18.921Z,15.20
2022-10-01T11:26:03.984Z,15.30
2022-10-01T11:28:34.350Z,15.30
2022-10-01T11:31:31.344Z,15.40
2022-10-01T11:34:19.805Z,15.20
2022-10-01T11:37:00.399Z,15.20
2022-10-01T11:39:29.660Z,15.10
2022-10-01T11:42:12.677Z,15.00
2022-10-01T11:44:44.752Z,15.10
2022-10-01T11:47:20.758Z,15.10
2022-10-01T11:50:20.477Z,15.00
2022-10-01T11:52:53.533Z,15.10
2022-10-01T11:55:51.357Z,15.30
2022-10-01T11:58:40.312Z,15.50
2022-10-01T12:01:18.753Z,15.50
2022-10-01T12:03:58.962Z,15.60
2022-10-01T12:06:44.937Z,15.80
2022-10-01T12:09:24.393Z,15.80
2022-10-01T12:11:59.015Z,15.90
2022-10-01T12:14:44.195Z,15.90
2022-10-01T12:17:40.196Z,15.90
2022-10-01T12:20:20.990Z,15.90
2022-10-01T12:22:50.006Z,15.90
2022-10-01T12:25:19.335Z,16.00
2022-10-01T12:28:04.751Z,16.10
2022-10-01T12:31:08.179Z,16.30
2022-10-01T12:33:44.756Z,16.20
2022-10-01T12:36:28.662Z,16.30
2022-10-01T12:39:34.362Z,16.30
2022-10-01T12:42:10.484Z,16.40
2022-10-01T12:45:10.296Z,16.20
2022-10-01T12:47:43.778Z,16.10
2022-10-01T12:50:38.822Z,16.10
2022-10-01T12:53:23.311Z,16.20
2022-10-01T12:56:11.375Z,16.20
2022-10-01T12:59:13.494Z,16.10
2022-10-01T13:01:56.118Z,15.80
2022-10-01T13:05:05.156Z,15.90
2022-10-01T13:07:52.614Z,15.80
2022-10-01T13:10:29.775Z,15.90
2022-10-01T13:13:10.196Z,15.80
2022-10-01T13:15:47.701Z,15.70
2022-10-01T13:18:25.813Z,15.70
2022-10-01T13:20:59.402Z,15.70
2022-10-01T13:24:01.419Z,15.80
2022-10-01T13:26:55.980Z,15.80
2022-10-01T13:29:47.960Z,15.80
2022-10-01T13:32:45.647Z,15.80
2022-10-01T13:35:36.118Z,15.90
2022-10-01T13:38:17.530Z,16.00
2022-10-01T13:40:44.833Z,16.00
2022-10-01T13:43:21.323Z,15.90
2022-10-01T13:45:51.907Z,15.80
2022-10-01T13:48:29.187Z,15.60
2022-10-01T13:51:03.263Z,15.40
2022-10-01T13:53:37.801Z,15.20
2022-10-01T13:56:05.978Z,15.10
2022-10-01T13:58:35.218Z,15.00
2022-10-01T14:01:06.350Z,14.90
2022-10-01T14:04:03.844Z,15.00
2022-10-01T14:06:39.294Z,15.00
2022-10-01T14:09:25.376Z,15.00
2022-10-01T14:12:26.045Z,15.10
2022-10-01T14:15:15.428Z,15.00
2022-10-01T14:17:44.674Z,15.00
2022-10-01T14:20:21.575Z,15.00
2022-10-01T14:23:00.512Z,14.90
2022-10-01T14:25:39.861Z,14.80
2022-10-01T14:28:30.568Z,14.80
2022-10-01T14:31:16.412Z,14.70
2022-10-01T14:33:43.577Z,14.60
2022-10-01T14:36:23.175Z,14.60
2022-10-01T14:38:50.163Z,14.50
2022-10-01T14:41:24.114Z,14.50
2022-10-01T14:43:51.060Z,14.40
2022-10-01T14:46:19.095Z,14.40
2022-10-01T14:48:58.364Z,14.20
2022-10-01T14:51:30.745Z,14.20
2022-10-01T14:54:00.210Z,14.30
2022-10-01T14:56:28.670Z,14.20
2022-10-01T14:59:02.654Z,14.20
2022-10-01T15:01:29.906Z,13.70
2022-10-01T15:03:56.945Z,14.00
2022-10-01T15:06:28.706Z,14.10
2022-10-01T15:09:03.497Z,14.20
2022-10-01T15:11:33.641Z,13.80
2022-10-01T15:14:10.610Z,13.70
2022-10-01T15:16:38.340Z,14.00
2022-10-01T15:19:13.842Z,13.80
2022-10-01T15:21:53.101Z,13.80
2022-10-01T15:24:23.031Z,14.10
2022-10-01T15:26:50.849Z,13.70
2022-10-01T15:29:18.346Z,13.60
2022-10-01T15:31:47.491Z,13.30
2022-10-01T15:34:17.833Z,13.60
2022-10-01T15:36:46.472Z,13.60
2022-10-01T15:39:34.775Z,13.50
2022-10-01T15:42:08.850Z,13.50
2022-10-01T15:44:47.135Z,13.30
2022-10-01T15:47:19.756Z,13.30
2022-10-01T15:50:16.225Z,13.30
2022-10-01T15:52:55.743Z,13.50
2022-10-01T15:55:41.480Z,13.20
2022-10-01T15:58:11.733Z,13.50
2022-10-01T16:00:47.585Z,13.40
2022-10-01T16:03:33.303Z,12.90
2022-10-01T16:06:04.996Z,12.70
2022-10-01T16:08:48.174Z,12.90
2022-10-01T16:11:31.921Z,12.90
2022-10-01T16:14:23.987Z,12.10
2022-10-01T16:17:11.274Z,12.70
2022-10-01T16:19:38.456Z,13.30
2022-10-01T16:22:39.823Z,12.70
2022-10-01T16:25:29.088Z,13.10
2022-10-01T16:28:04.369Z,12.90
2022-10-01T16:30:33.877Z,12.70
2022-10-01T16:33:04.553Z,12.40
2022-10-01T16:35:35.817Z,12.60
2022-10-01T16:38:10.630Z,13.20
2022-10-01T16:40:44.644Z,12.60
2022-10-01T16:43:19.852Z,12.70
2022-10-01T16:45:47.043Z,12.60
2022-10-01T16:48:20.605Z,12.70
2022-10-01T16:50:48.471Z,12.60
2022-10-01T16:53:18.212Z,12.60
2022-10-01T16:55:46.813Z,12.60
2022-10-01T16:58:14.100Z,12.60
2022-10-01T17:00:42.000Z,12.60
2022-10-01T17:03:16.089Z,12.60
2022-10-01T17:08:17.173Z,12.60
2022-10-01T17:10:48.492Z,12.50
2022-10-01T17:13:15.935Z,13.60
2022-10-01T17:15:50.701Z,12.50
2022-10-01T17:18:20.861Z,13.30
2022-10-01T17:20:48.185Z,12.40
2022-10-01T17:23:17.421Z,12.30
2022-10-01T17:25:45.360Z,12.00
2022-10-01T17:28:15.220Z,12.20
2022-10-01T17:30:44.204Z,12.20
2022-10-01T17:33:13.800Z,12.20
2022-10-01T17:35:46.534Z,12.20
2022-10-01T17:38:13.823Z,12.20
2022-10-01T17:40:42.189Z,12.20
2022-10-01T17:43:14.044Z,12.20
2022-10-01T17:45:42.054Z,12.20
2022-10-01T17:48:10.274Z,12.20
2022-10-01T17:50:43.804Z,12.20
2022-10-01T17:53:12.441Z,12.20
2022-10-01T17:55:41.932Z,12.20
2022-10-01T17:58:09.969Z,12.10
2022-10-01T18:00:37.265Z,12.10
2022-10-01T18:03:04.633Z,12.10
2022-10-01T18:05:31.708Z,12.10
2022-10-01T18:07:58.854Z,12.10
2022-10-01T18:10:26.330Z,12.10
2022-10-01T18:12:53.779Z,12.10
2022-10-01T18:15:23.927Z,12.10
2022-10-01T18:18:48.550Z,12.00
2022-10-01T18:20:41.278Z,12.00
2022-10-01T18:23:08.603Z,12.00
2022-10-01T18:25:35.663Z,12.00
2022-10-01T18:28:02.763Z,12.00
2022-10-01T18:30:30.364Z,12.00
2022-10-01T18:32:57.506Z,11.90
2022-10-01T18:35:31.739Z,11.90
2022-10-01T18:38:04.792Z,12.00
2022-10-01T18:40:43.003Z,12.00
2022-10-01T18:43:22.148Z,12.00
2022-10-01T18:45:55.953Z,11.90
2022-10-01T18:48:26.253Z,11.90
2022-10-01T18:51:19.719Z,11.90
2022-10-01T18:54:05.945Z,11.90
2022-10-01T18:56:38.834Z,11.90
2022-10-01T18:59:38.584Z,11.90
2022-10-01T19:02:13.054Z,11.90
2022-10-01T19:05:17.202Z,11.90
2022-10-01T19:07:50.094Z,11.90
2022-10-01T19:10:37.839Z,11.90
2022-10-01T19:13:17.917Z,11.90
2022-10-01T19:15:48.184Z,11.90
2022-10-01T19:18:41.641Z,11.70
2022-10-01T19:21:27.712Z,11.50
2022-10-01T19:24:36.623Z,11.30
2022-10-01T19:27:43.282Z,11.20
2022-10-01T19:30:15.876Z,11.30
2022-10-01T19:32:49.815Z,11.20
2022-10-01T19:35:22.906Z,11.20
2022-10-01T19:38:02.943Z,11.10
2022-10-01T19:40:38.480Z,11.10
2022-10-01T19:43:49.509Z,11.10
2022-10-01T19:46:35.001Z,11.10
2022-10-01T19:49:08.735Z,11.00
2022-10-01T19:51:57.320Z,11.10
2022-10-01T19:54:37.395Z,11.00
2022-10-01T19:57:39.035Z,11.00
2022-10-01T20:00:12.244Z,11.00
2022-10-01T20:03:18.037Z,10.90
2022-10-01T20:06:08.772Z,10.90
2022-10-01T20:08:55.737Z,10.80
2022-10-01T20:11:31.263Z,10.80
2022-10-01T20:14:40.251Z,10.80
2022-10-01T20:17:29.486Z,10.80
2022-10-01T20:20:24.117Z,10.80
2022-10-01T20:23:24.846Z,10.80
2022-10-01T20:26:21.650Z,10.70
2022-10-01T20:29:21.138Z,10.70
2022-10-01T20:32:13.344Z,10.70
2022-10-01T20:35:05.815Z,10.70
2022-10-01T20:37:41.078Z,10.70
2022-10-01T20:40:14.511Z,10.70
2022-10-01T20:42:47.627Z,10.70
2022-10-01T20:45:26.367Z,10.70
2022-10-01T20:48:16.770Z,10.80
2022-10-01T20:50:47.503Z,10.70
2022-10-01T20:57:39.133Z,10.80
2022-10-01T21:00:27.559Z,10.80
2022-10-01T21:03:17.246Z,10.80
2022-10-01T21:06:07.861Z,10.90
2022-10-01T21:08:47.290Z,10.90
2022-10-01T21:11:28.336Z,10.90
2022-10-01T21:14:06.215Z,10.90
2022-10-01T21:16:48.944Z,10.90
2022-10-01T21:19:18.324Z,10.90
2022-10-01T21:26:04.345Z,10.90
2022-10-01T21:29:15.758Z,10.90
2022-10-01T21:40:26.444Z,10.90
2022-10-01T21:43:11.928Z,10.90
2022-10-01T21:45:50.588Z,11.00
2022-10-01T21:48:25.105Z,10.90
2022-10-01T21:50:53.990Z,10.90
2022-10-01T21:53:42.824Z,10.90
2022-10-01T21:56:21.762Z,10.90
2022-10-01T21:59:25.973Z,10.90
2022-10-01T22:02:04.709Z,10.90
2022-10-01T22:04:48.467Z,10.90
2022-10-01T22:07:28.191Z,10.90
2022-10-01T22:10:27.417Z,10.80
2022-10-01T22:13:00.768Z,10.70
2022-10-01T22:15:33.487Z,11.20
2022-10-01T22:18:04.009Z,10.50
2022-10-01T22:20:34.899Z,10.90
2022-10-01T22:23:08.480Z,10.90
2022-10-01T22:25:43.407Z,11.00
2022-10-01T22:28:14.364Z,11.00
2022-10-01T22:30:44.896Z,10.70
2022-10-01T22:33:17.184Z,11.00
2022-10-01T22:35:46.550Z,11.00
2022-10-01T22:38:25.503Z,10.80
2022-10-01T22:41:02.146Z,11.10
2022-10-01T22:43:29.393Z,10.10
2022-10-01T22:46:17.915Z,11.10
2022-10-01T22:48:53.131Z,11.10
2022-10-01T22:51:29.252Z,11.10
2022-10-01T22:54:23.949Z,11.10
2022-10-01T22:56:59.457Z,11.40
2022-10-01T22:59:35.460Z,11.10
2022-10-01T23:02:21.475Z,11.10
2022-10-01T23:05:27.523Z,11.10
2022-10-01T23:08:31.506Z,11.10
2022-10-01T23:11:27.689Z,11.20
2022-10-01T23:14:13.098Z,11.20
2022-10-01T23:17:03.883Z,11.20
2022-10-01T23:19:55.877Z,11.20
2022-10-01T23:22:29.059Z,11.20
2022-10-01T23:25:24.040Z,11.20
2022-10-01T23:28:27.227Z,11.30
2022-10-01T23:31:14.837Z,11.30
2022-10-01T23:33:48.991Z,11.30
2022-10-01T23:36:37.124Z,11.30
2022-10-01T23:39:33.130Z,11.30
2022-10-01T23:42:19.422Z,11.30
2022-10-01T23:44:50.166Z,11.30
2022-10-01T23:47:25.256Z,11.30
2022-10-01T23:49:55.220Z,11.40
2022-10-01T23:52:34.645Z,11.30
2022-10-01T23:55:33.270Z,11.30
2022-10-01T23:58:03.367Z,11.40
